sensor_id;sensor_type;location;lat;lon;timestamp;temperature;humidity
439;DHT22;206;48.782;9.252;2024-01-30T00:01:55;5.40;50.50
439;DHT22;206;48.782;9.252;2024-01-30T00:04:20;5.40;51.00
439;DHT22;206;48.782;9.252;2024-01-30T00:06:46;5.40;51.10
439;DHT22;206;48.782;9.252;2024-01-30T00:09:12;5.40;52.30
439;DHT22;206;48.782;9.252;2024-01-30T00:11:38;5.30;52.40
439;DHT22;206;48.782;9.252;2024-01-30T00:14:04;5.20;53.00
439;DHT22;206;48.782;9.252;2024-01-30T00:16:30;5.20;53.50
439;DHT22;206;48.782;9.252;2024-01-30T00:18:55;5.10;53.60
439;DHT22;206;48.782;9.252;2024-01-30T00:21:21;5.10;53.60
439;DHT22;206;48.782;9.252;2024-01-30T00:23:47;5.10;53.50
439;DHT22;206;48.782;9.252;2024-01-30T00:26:13;5.10;53.60
439;DHT22;206;48.782;9.252;2024-01-30T00:28:43;5.10;53.70
439;DHT22;206;48.782;9.252;2024-01-30T00:31:09;5.10;53.60
439;DHT22;206;48.782;9.252;2024-01-30T00:33:38;5.10;53.40
439;DHT22;206;48.782;9.252;2024-01-30T00:36:05;5.10;53.60
439;DHT22;206;48.782;9.252;2024-01-30T00:38:32;5.10;53.30
439;DHT22;206;48.782;9.252;2024-01-30T00:40:58;5.10;53.70
439;DHT22;206;48.782;9.252;2024-01-30T00:43:23;5.20;53.80
439;DHT22;206;48.782;9.252;2024-01-30T00:45:50;5.20;53.20
439;DHT22;206;48.782;9.252;2024-01-30T00:48:17;5.20;52.50
439;DHT22;206;48.782;9.252;2024-01-30T00:50:43;5.20;52.50
439;DHT22;206;48.782;9.252;2024-01-30T00:53:08;5.30;52.10
439;DHT22;206;48.782;9.252;2024-01-30T00:55:34;5.30;51.80
439;DHT22;206;48.782;9.252;2024-01-30T00:58:00;5.20;51.50
439;DHT22;206;48.782;9.252;2024-01-30T01:00:26;5.10;52.00
439;DHT22;206;48.782;9.252;2024-01-30T01:02:57;5.10;52.30
439;DHT22;206;48.782;9.252;2024-01-30T01:05:23;5.00;53.10
439;DHT22;206;48.782;9.252;2024-01-30T01:07:49;5.10;53.40
439;DHT22;206;48.782;9.252;2024-01-30T01:10:15;5.00;53.50
439;DHT22;206;48.782;9.252;2024-01-30T01:12:42;5.00;53.50
439;DHT22;206;48.782;9.252;2024-01-30T01:15:08;5.00;53.80
439;DHT22;206;48.782;9.252;2024-01-30T01:17:38;5.00;53.60
439;DHT22;206;48.782;9.252;2024-01-30T01:20:05;5.00;53.50
439;DHT22;206;48.782;9.252;2024-01-30T01:22:32;5.00;53.50
439;DHT22;206;48.782;9.252;2024-01-30T01:24:58;5.00;53.30
439;DHT22;206;48.782;9.252;2024-01-30T01:27:24;5.00;53.00
439;DHT22;206;48.782;9.252;2024-01-30T01:29:50;5.10;53.20
439;DHT22;206;48.782;9.252;2024-01-30T01:32:15;5.10;52.80
439;DHT22;206;48.782;9.252;2024-01-30T01:34:41;5.10;52.40
439;DHT22;206;48.782;9.252;2024-01-30T01:37:07;5.00;52.60
439;DHT22;206;48.782;9.252;2024-01-30T01:39:33;5.00;52.30
439;DHT22;206;48.782;9.252;2024-01-30T01:41:58;5.00;52.40
439;DHT22;206;48.782;9.252;2024-01-30T01:44:24;5.00;52.70
439;DHT22;206;48.782;9.252;2024-01-30T01:46:51;5.00;52.90
439;DHT22;206;48.782;9.252;2024-01-30T01:49:17;5.00;53.00
439;DHT22;206;48.782;9.252;2024-01-30T01:51:43;4.90;52.70
439;DHT22;206;48.782;9.252;2024-01-30T01:54:10;4.90;53.10
439;DHT22;206;48.782;9.252;2024-01-30T01:56:36;4.80;53.10
439;DHT22;206;48.782;9.252;2024-01-30T01:59:07;4.80;53.50
439;DHT22;206;48.782;9.252;2024-01-30T02:01:34;4.80;53.60
439;DHT22;206;48.782;9.252;2024-01-30T02:04:00;4.70;54.00
439;DHT22;206;48.782;9.252;2024-01-30T02:06:27;4.70;54.20
439;DHT22;206;48.782;9.252;2024-01-30T02:08:53;4.60;54.50
439;DHT22;206;48.782;9.252;2024-01-30T02:11:20;4.60;54.60
439;DHT22;206;48.782;9.252;2024-01-30T02:13:45;4.50;55.20
439;DHT22;206;48.782;9.252;2024-01-30T02:16:11;4.50;55.30
439;DHT22;206;48.782;9.252;2024-01-30T02:18:36;4.50;55.40
439;DHT22;206;48.782;9.252;2024-01-30T02:21:07;4.50;55.80
439;DHT22;206;48.782;9.252;2024-01-30T02:23:34;4.50;56.10
439;DHT22;206;48.782;9.252;2024-01-30T02:26:00;4.50;56.20
439;DHT22;206;48.782;9.252;2024-01-30T02:28:25;4.40;56.50
439;DHT22;206;48.782;9.252;2024-01-30T02:30:52;4.40;57.00
439;DHT22;206;48.782;9.252;2024-01-30T02:33:18;4.40;56.90
439;DHT22;206;48.782;9.252;2024-01-30T02:35:44;4.40;56.90
439;DHT22;206;48.782;9.252;2024-01-30T02:38:09;4.40;57.10
439;DHT22;206;48.782;9.252;2024-01-30T02:40:35;4.40;57.30
439;DHT22;206;48.782;9.252;2024-01-30T02:43:02;4.40;57.30
439;DHT22;206;48.782;9.252;2024-01-30T02:45:28;4.40;57.60
439;DHT22;206;48.782;9.252;2024-01-30T02:47:54;4.40;57.30
439;DHT22;206;48.782;9.252;2024-01-30T02:50:19;4.30;57.60
439;DHT22;206;48.782;9.252;2024-01-30T02:52:45;4.30;57.40
439;DHT22;206;48.782;9.252;2024-01-30T02:55:11;4.20;58.40
439;DHT22;206;48.782;9.252;2024-01-30T02:57:37;4.20;58.60
439;DHT22;206;48.782;9.252;2024-01-30T03:00:03;4.20;58.30
439;DHT22;206;48.782;9.252;2024-01-30T03:02:31;4.20;57.80
439;DHT22;206;48.782;9.252;2024-01-30T03:04:56;4.10;58.70
439;DHT22;206;48.782;9.252;2024-01-30T03:07:22;4.10;58.80
439;DHT22;206;48.782;9.252;2024-01-30T03:09:48;4.10;58.80
439;DHT22;206;48.782;9.252;2024-01-30T03:12:13;4.10;58.80
439;DHT22;206;48.782;9.252;2024-01-30T03:14:39;4.10;58.80
439;DHT22;206;48.782;9.252;2024-01-30T03:17:05;4.10;58.80
439;DHT22;206;48.782;9.252;2024-01-30T03:19:30;4.10;58.80
439;DHT22;206;48.782;9.252;2024-01-30T03:21:56;4.10;58.80
439;DHT22;206;48.782;9.252;2024-01-30T03:24:21;4.10;58.70
439;DHT22;206;48.782;9.252;2024-01-30T03:26:47;4.10;58.80
439;DHT22;206;48.782;9.252;2024-01-30T03:29:13;4.10;58.80
439;DHT22;206;48.782;9.252;2024-01-30T03:31:39;4.10;58.80
439;DHT22;206;48.782;9.252;2024-01-30T03:34:04;4.10;59.00
439;DHT22;206;48.782;9.252;2024-01-30T03:36:30;4.10;59.00
439;DHT22;206;48.782;9.252;2024-01-30T03:38:58;4.10;58.80
439;DHT22;206;48.782;9.252;2024-01-30T03:41:24;4.10;58.80
439;DHT22;206;48.782;9.252;2024-01-30T03:43:50;4.10;58.80
439;DHT22;206;48.782;9.252;2024-01-30T03:46:16;4.10;59.20
439;DHT22;206;48.782;9.252;2024-01-30T03:48:41;4.10;59.20
439;DHT22;206;48.782;9.252;2024-01-30T03:51:07;4.10;59.60
439;DHT22;206;48.782;9.252;2024-01-30T03:53:32;4.00;59.60
439;DHT22;206;48.782;9.252;2024-01-30T03:55:58;4.10;58.80
439;DHT22;206;48.782;9.252;2024-01-30T03:58:24;4.00;58.70
439;DHT22;206;48.782;9.252;2024-01-30T04:00:49;4.10;59.00
439;DHT22;206;48.782;9.252;2024-01-30T04:03:15;4.00;58.70
439;DHT22;206;48.782;9.252;2024-01-30T04:05:41;4.00;59.30
439;DHT22;206;48.782;9.252;2024-01-30T04:08:07;4.00;59.60
439;DHT22;206;48.782;9.252;2024-01-30T04:10:33;4.00;59.40
439;DHT22;206;48.782;9.252;2024-01-30T04:12:58;4.00;59.20
439;DHT22;206;48.782;9.252;2024-01-30T04:15:25;3.90;59.60
439;DHT22;206;48.782;9.252;2024-01-30T04:17:50;3.90;59.80
439;DHT22;206;48.782;9.252;2024-01-30T04:20:16;3.90;59.30
439;DHT22;206;48.782;9.252;2024-01-30T04:22:45;3.80;59.70
439;DHT22;206;48.782;9.252;2024-01-30T04:25:14;3.80;60.10
439;DHT22;206;48.782;9.252;2024-01-30T04:27:40;3.80;60.50
439;DHT22;206;48.782;9.252;2024-01-30T04:30:06;3.80;60.00
439;DHT22;206;48.782;9.252;2024-01-30T04:32:32;3.80;60.20
439;DHT22;206;48.782;9.252;2024-01-30T04:34:58;3.80;60.00
439;DHT22;206;48.782;9.252;2024-01-30T04:37:24;3.80;60.00
439;DHT22;206;48.782;9.252;2024-01-30T04:39:50;3.80;60.10
439;DHT22;206;48.782;9.252;2024-01-30T04:42:18;3.70;60.00
439;DHT22;206;48.782;9.252;2024-01-30T04:44:44;3.80;60.40
439;DHT22;206;48.782;9.252;2024-01-30T04:47:09;3.70;60.00
439;DHT22;206;48.782;9.252;2024-01-30T04:49:40;3.70;60.00
439;DHT22;206;48.782;9.252;2024-01-30T04:52:06;3.70;60.30
439;DHT22;206;48.782;9.252;2024-01-30T04:54:32;3.70;60.50
439;DHT22;206;48.782;9.252;2024-01-30T04:56:58;3.70;60.30
439;DHT22;206;48.782;9.252;2024-01-30T04:59:24;3.70;60.10
439;DHT22;206;48.782;9.252;2024-01-30T05:01:49;3.60;60.50
439;DHT22;206;48.782;9.252;2024-01-30T05:04:15;3.60;60.20
439;DHT22;206;48.782;9.252;2024-01-30T05:06:41;3.70;60.30
439;DHT22;206;48.782;9.252;2024-01-30T05:09:06;3.60;60.20
439;DHT22;206;48.782;9.252;2024-01-30T05:11:37;3.60;60.40
439;DHT22;206;48.782;9.252;2024-01-30T05:14:03;3.60;60.20
439;DHT22;206;48.782;9.252;2024-01-30T05:16:29;3.60;60.70
439;DHT22;206;48.782;9.252;2024-01-30T05:18:54;3.60;60.70
439;DHT22;206;48.782;9.252;2024-01-30T05:21:20;3.50;61.40
439;DHT22;206;48.782;9.252;2024-01-30T05:23:45;3.60;61.70
439;DHT22;206;48.782;9.252;2024-01-30T05:26:11;3.60;61.60
439;DHT22;206;48.782;9.252;2024-01-30T05:28:37;3.60;61.30
439;DHT22;206;48.782;9.252;2024-01-30T05:31:03;3.60;60.80
439;DHT22;206;48.782;9.252;2024-01-30T05:33:28;3.60;61.00
439;DHT22;206;48.782;9.252;2024-01-30T05:35:54;3.60;61.30
439;DHT22;206;48.782;9.252;2024-01-30T05:38:20;3.60;61.00
439;DHT22;206;48.782;9.252;2024-01-30T05:40:45;3.60;61.40
439;DHT22;206;48.782;9.252;2024-01-30T05:43:11;3.60;61.60
439;DHT22;206;48.782;9.252;2024-01-30T05:45:37;3.60;61.00
439;DHT22;206;48.782;9.252;2024-01-30T05:48:04;3.70;60.70
439;DHT22;206;48.782;9.252;2024-01-30T05:50:30;3.70;59.90
439;DHT22;206;48.782;9.252;2024-01-30T05:52:56;3.70;60.00
439;DHT22;206;48.782;9.252;2024-01-30T05:55:22;3.70;60.00
439;DHT22;206;48.782;9.252;2024-01-30T05:57:48;3.70;59.50
439;DHT22;206;48.782;9.252;2024-01-30T06:00:14;3.70;59.20
439;DHT22;206;48.782;9.252;2024-01-30T06:02:40;3.70;59.50
439;DHT22;206;48.782;9.252;2024-01-30T06:05:05;3.70;59.00
439;DHT22;206;48.782;9.252;2024-01-30T06:07:31;3.70;58.70
439;DHT22;206;48.782;9.252;2024-01-30T06:09:57;3.80;58.80
439;DHT22;206;48.782;9.252;2024-01-30T06:12:23;3.80;58.50
439;DHT22;206;48.782;9.252;2024-01-30T06:14:49;3.80;58.30
439;DHT22;206;48.782;9.252;2024-01-30T06:17:14;3.80;58.50
439;DHT22;206;48.782;9.252;2024-01-30T06:19:40;3.80;57.60
439;DHT22;206;48.782;9.252;2024-01-30T06:22:07;3.80;58.20
439;DHT22;206;48.782;9.252;2024-01-30T06:24:32;3.80;57.90
439;DHT22;206;48.782;9.252;2024-01-30T06:26:59;3.80;57.80
439;DHT22;206;48.782;9.252;2024-01-30T06:29:24;3.80;58.00
439;DHT22;206;48.782;9.252;2024-01-30T06:31:52;3.70;57.90
439;DHT22;206;48.782;9.252;2024-01-30T06:34:17;3.70;58.20
439;DHT22;206;48.782;9.252;2024-01-30T06:36:44;3.70;58.40
439;DHT22;206;48.782;9.252;2024-01-30T06:39:10;3.70;58.40
439;DHT22;206;48.782;9.252;2024-01-30T06:41:35;3.60;58.30
439;DHT22;206;48.782;9.252;2024-01-30T06:44:04;3.60;58.60
439;DHT22;206;48.782;9.252;2024-01-30T06:46:32;3.60;58.30
439;DHT22;206;48.782;9.252;2024-01-30T06:48:58;3.60;59.00
439;DHT22;206;48.782;9.252;2024-01-30T06:51:23;3.60;58.70
439;DHT22;206;48.782;9.252;2024-01-30T06:53:49;3.60;58.30
439;DHT22;206;48.782;9.252;2024-01-30T06:56:14;3.60;59.30
439;DHT22;206;48.782;9.252;2024-01-30T06:58:40;3.60;59.10
439;DHT22;206;48.782;9.252;2024-01-30T07:01:06;3.60;58.80
439;DHT22;206;48.782;9.252;2024-01-30T07:03:32;3.60;58.40
439;DHT22;206;48.782;9.252;2024-01-30T07:05:58;3.60;58.80
439;DHT22;206;48.782;9.252;2024-01-30T07:08:23;3.60;59.30
439;DHT22;206;48.782;9.252;2024-01-30T07:10:49;3.60;59.60
439;DHT22;206;48.782;9.252;2024-01-30T07:13:15;3.60;59.60
439;DHT22;206;48.782;9.252;2024-01-30T07:15:42;3.60;59.60
439;DHT22;206;48.782;9.252;2024-01-30T07:18:07;3.60;59.50
439;DHT22;206;48.782;9.252;2024-01-30T07:20:35;3.60;59.60
439;DHT22;206;48.782;9.252;2024-01-30T07:23:00;3.60;59.50
439;DHT22;206;48.782;9.252;2024-01-30T07:25:26;3.60;59.00
439;DHT22;206;48.782;9.252;2024-01-30T07:27:53;3.70;58.90
439;DHT22;206;48.782;9.252;2024-01-30T07:30:19;3.60;59.00
439;DHT22;206;48.782;9.252;2024-01-30T07:32:46;3.70;59.20
439;DHT22;206;48.782;9.252;2024-01-30T07:35:13;3.70;58.40
439;DHT22;206;48.782;9.252;2024-01-30T07:37:38;3.70;58.40
439;DHT22;206;48.782;9.252;2024-01-30T07:40:05;3.70;58.40
439;DHT22;206;48.782;9.252;2024-01-30T07:42:32;3.70;58.40
439;DHT22;206;48.782;9.252;2024-01-30T07:44:57;3.80;58.50
439;DHT22;206;48.782;9.252;2024-01-30T07:47:23;3.90;58.00
439;DHT22;206;48.782;9.252;2024-01-30T07:49:49;3.90;58.50
439;DHT22;206;48.782;9.252;2024-01-30T07:52:14;3.90;57.90
439;DHT22;206;48.782;9.252;2024-01-30T07:54:40;4.00;57.00
439;DHT22;206;48.782;9.252;2024-01-30T07:57:05;4.10;57.10
439;DHT22;206;48.782;9.252;2024-01-30T07:59:31;4.20;56.40
439;DHT22;206;48.782;9.252;2024-01-30T08:01:56;4.30;55.60
439;DHT22;206;48.782;9.252;2024-01-30T08:04:22;4.40;55.00
439;DHT22;206;48.782;9.252;2024-01-30T08:06:48;4.40;54.40
439;DHT22;206;48.782;9.252;2024-01-30T08:09:14;4.40;54.40
439;DHT22;206;48.782;9.252;2024-01-30T08:11:40;4.50;54.40
439;DHT22;206;48.782;9.252;2024-01-30T08:14:05;4.60;53.20
439;DHT22;206;48.782;9.252;2024-01-30T08:16:31;4.60;52.70
439;DHT22;206;48.782;9.252;2024-01-30T08:18:56;4.70;52.60
439;DHT22;206;48.782;9.252;2024-01-30T08:21:23;4.80;51.70
439;DHT22;206;48.782;9.252;2024-01-30T08:23:48;4.90;51.30
439;DHT22;206;48.782;9.252;2024-01-30T08:26:14;5.10;50.60
439;DHT22;206;48.782;9.252;2024-01-30T08:28:39;5.20;49.40
439;DHT22;206;48.782;9.252;2024-01-30T08:31:05;5.20;49.00
439;DHT22;206;48.782;9.252;2024-01-30T08:33:31;5.40;48.80
439;DHT22;206;48.782;9.252;2024-01-30T08:35:57;5.50;48.50
439;DHT22;206;48.782;9.252;2024-01-30T08:38:22;5.60;46.10
439;DHT22;206;48.782;9.252;2024-01-30T08:40:48;5.80;46.10
439;DHT22;206;48.782;9.252;2024-01-30T08:43:13;5.90;45.80
439;DHT22;206;48.782;9.252;2024-01-30T08:45:40;6.00;44.50
439;DHT22;206;48.782;9.252;2024-01-30T08:48:07;6.20;43.90
439;DHT22;206;48.782;9.252;2024-01-30T08:50:33;6.40;42.00
439;DHT22;206;48.782;9.252;2024-01-30T08:52:59;6.60;41.90
439;DHT22;206;48.782;9.252;2024-01-30T08:55:24;6.80;40.20
439;DHT22;206;48.782;9.252;2024-01-30T08:57:50;6.80;39.40
439;DHT22;206;48.782;9.252;2024-01-30T09:00:17;6.90;38.80
439;DHT22;206;48.782;9.252;2024-01-30T09:02:43;7.00;38.30
439;DHT22;206;48.782;9.252;2024-01-30T09:05:09;7.00;38.80
439;DHT22;206;48.782;9.252;2024-01-30T09:07:34;7.10;38.30
439;DHT22;206;48.782;9.252;2024-01-30T09:10:00;7.20;37.50
439;DHT22;206;48.782;9.252;2024-01-30T09:12:25;7.30;38.00
439;DHT22;206;48.782;9.252;2024-01-30T09:14:51;7.20;36.60
439;DHT22;206;48.782;9.252;2024-01-30T09:17:17;7.20;37.30
439;DHT22;206;48.782;9.252;2024-01-30T09:19:42;7.30;36.50
439;DHT22;206;48.782;9.252;2024-01-30T09:22:08;7.40;36.30
439;DHT22;206;48.782;9.252;2024-01-30T09:24:33;7.40;35.60
439;DHT22;206;48.782;9.252;2024-01-30T09:26:59;7.40;36.20
439;DHT22;206;48.782;9.252;2024-01-30T09:29:25;7.60;35.90
439;DHT22;206;48.782;9.252;2024-01-30T09:31:50;7.70;35.20
439;DHT22;206;48.782;9.252;2024-01-30T09:34:16;7.80;33.90
439;DHT22;206;48.782;9.252;2024-01-30T09:36:41;7.90;34.20
439;DHT22;206;48.782;9.252;2024-01-30T09:39:07;8.10;33.30
439;DHT22;206;48.782;9.252;2024-01-30T09:41:33;8.30;33.40
439;DHT22;206;48.782;9.252;2024-01-30T09:44:07;8.30;33.40
439;DHT22;206;48.782;9.252;2024-01-30T09:46:35;8.50;33.10
439;DHT22;206;48.782;9.252;2024-01-30T09:49:01;8.60;32.00
439;DHT22;206;48.782;9.252;2024-01-30T09:51:27;8.70;31.00
439;DHT22;206;48.782;9.252;2024-01-30T09:53:55;8.80;30.50
439;DHT22;206;48.782;9.252;2024-01-30T09:56:22;8.90;30.50
439;DHT22;206;48.782;9.252;2024-01-30T09:58:47;9.10;30.00
439;DHT22;206;48.782;9.252;2024-01-30T10:01:14;9.10;29.60
439;DHT22;206;48.782;9.252;2024-01-30T10:03:44;9.10;29.70
439;DHT22;206;48.782;9.252;2024-01-30T10:06:10;9.10;29.30
439;DHT22;206;48.782;9.252;2024-01-30T10:08:36;9.10;29.30
439;DHT22;206;48.782;9.252;2024-01-30T10:11:01;9.20;29.40
439;DHT22;206;48.782;9.252;2024-01-30T10:13:28;9.30;29.40
439;DHT22;206;48.782;9.252;2024-01-30T10:15:54;9.40;29.10
439;DHT22;206;48.782;9.252;2024-01-30T10:18:22;9.50;28.30
439;DHT22;206;48.782;9.252;2024-01-30T10:20:48;9.60;27.90
439;DHT22;206;48.782;9.252;2024-01-30T10:23:13;9.60;27.80
439;DHT22;206;48.782;9.252;2024-01-30T10:25:39;9.70;27.00
439;DHT22;206;48.782;9.252;2024-01-30T10:28:05;9.80;27.00
439;DHT22;206;48.782;9.252;2024-01-30T10:30:30;10.00;26.40
439;DHT22;206;48.782;9.252;2024-01-30T10:32:56;10.20;25.60
439;DHT22;206;48.782;9.252;2024-01-30T10:35:21;10.40;25.40
439;DHT22;206;48.782;9.252;2024-01-30T10:37:48;10.40;24.80
439;DHT22;206;48.782;9.252;2024-01-30T10:40:14;10.50;24.40
439;DHT22;206;48.782;9.252;2024-01-30T10:42:44;10.60;24.40
439;DHT22;206;48.782;9.252;2024-01-30T10:45:12;10.70;24.60
439;DHT22;206;48.782;9.252;2024-01-30T10:47:49;10.80;23.70
439;DHT22;206;48.782;9.252;2024-01-30T10:50:15;10.90;23.70
439;DHT22;206;48.782;9.252;2024-01-30T10:52:41;11.00;23.50
439;DHT22;206;48.782;9.252;2024-01-30T10:55:10;11.10;23.40
439;DHT22;206;48.782;9.252;2024-01-30T10:57:36;11.20;22.80
439;DHT22;206;48.782;9.252;2024-01-30T11:00:07;11.30;22.70
439;DHT22;206;48.782;9.252;2024-01-30T11:02:45;11.20;22.80
439;DHT22;206;48.782;9.252;2024-01-30T11:05:11;11.20;22.80
439;DHT22;206;48.782;9.252;2024-01-30T11:07:39;11.20;22.80
439;DHT22;206;48.782;9.252;2024-01-30T11:10:06;11.30;23.00
439;DHT22;206;48.782;9.252;2024-01-30T11:12:38;11.30;23.10
439;DHT22;206;48.782;9.252;2024-01-30T11:15:10;11.40;23.10
439;DHT22;206;48.782;9.252;2024-01-30T11:17:43;11.50;22.90
439;DHT22;206;48.782;9.252;2024-01-30T11:20:15;11.60;22.60
439;DHT22;206;48.782;9.252;2024-01-30T11:23:01;11.70;22.90
439;DHT22;206;48.782;9.252;2024-01-30T11:25:32;11.90;22.40
439;DHT22;206;48.782;9.252;2024-01-30T11:27:58;12.00;22.10
439;DHT22;206;48.782;9.252;2024-01-30T11:30:28;12.10;21.70
439;DHT22;206;48.782;9.252;2024-01-30T11:33:02;12.20;21.50
439;DHT22;206;48.782;9.252;2024-01-30T11:35:35;12.40;21.30
439;DHT22;206;48.782;9.252;2024-01-30T11:38:01;12.50;21.40
439;DHT22;206;48.782;9.252;2024-01-30T11:40:28;12.60;20.80
439;DHT22;206;48.782;9.252;2024-01-30T11:42:55;12.60;20.30
439;DHT22;206;48.782;9.252;2024-01-30T11:45:21;12.60;20.20
439;DHT22;206;48.782;9.252;2024-01-30T11:47:47;12.70;20.00
439;DHT22;206;48.782;9.252;2024-01-30T11:50:13;12.80;20.10
439;DHT22;206;48.782;9.252;2024-01-30T11:52:39;12.70;19.80
439;DHT22;206;48.782;9.252;2024-01-30T11:55:05;12.90;19.70
439;DHT22;206;48.782;9.252;2024-01-30T11:57:31;12.90;19.40
439;DHT22;206;48.782;9.252;2024-01-30T11:59:57;13.00;19.10
439;DHT22;206;48.782;9.252;2024-01-30T12:02:22;13.00;19.10
439;DHT22;206;48.782;9.252;2024-01-30T12:04:48;13.10;19.10
439;DHT22;206;48.782;9.252;2024-01-30T12:07:14;13.20;19.20
439;DHT22;206;48.782;9.252;2024-01-30T12:09:42;13.30;19.30
439;DHT22;206;48.782;9.252;2024-01-30T12:12:17;13.40;19.40
439;DHT22;206;48.782;9.252;2024-01-30T12:14:42;13.40;19.40
439;DHT22;206;48.782;9.252;2024-01-30T12:17:08;13.50;19.40
439;DHT22;206;48.782;9.252;2024-01-30T12:19:34;13.60;19.30
439;DHT22;206;48.782;9.252;2024-01-30T12:22:00;13.60;19.40
439;DHT22;206;48.782;9.252;2024-01-30T12:24:27;13.70;18.90
439;DHT22;206;48.782;9.252;2024-01-30T12:26:57;13.70;19.00
439;DHT22;206;48.782;9.252;2024-01-30T12:29:22;13.60;19.50
439;DHT22;206;48.782;9.252;2024-01-30T12:31:48;13.70;19.30
439;DHT22;206;48.782;9.252;2024-01-30T12:34:14;13.70;19.10
439;DHT22;206;48.782;9.252;2024-01-30T12:36:42;13.80;19.50
439;DHT22;206;48.782;9.252;2024-01-30T12:39:11;13.90;19.30
439;DHT22;206;48.782;9.252;2024-01-30T12:41:38;13.90;19.20
439;DHT22;206;48.782;9.252;2024-01-30T12:44:04;13.90;19.10
439;DHT22;206;48.782;9.252;2024-01-30T12:46:29;14.00;19.40
439;DHT22;206;48.782;9.252;2024-01-30T12:48:55;14.00;18.90
439;DHT22;206;48.782;9.252;2024-01-30T12:51:21;14.00;19.00
439;DHT22;206;48.782;9.252;2024-01-30T12:53:47;14.00;19.20
439;DHT22;206;48.782;9.252;2024-01-30T12:56:13;14.10;18.90
439;DHT22;206;48.782;9.252;2024-01-30T12:58:40;14.20;19.10
439;DHT22;206;48.782;9.252;2024-01-30T13:01:08;14.30;19.10
439;DHT22;206;48.782;9.252;2024-01-30T13:03:34;14.30;19.00
439;DHT22;206;48.782;9.252;2024-01-30T13:05:59;14.30;19.00
439;DHT22;206;48.782;9.252;2024-01-30T13:08:25;14.30;18.90
439;DHT22;206;48.782;9.252;2024-01-30T13:10:51;14.40;19.10
439;DHT22;206;48.782;9.252;2024-01-30T13:13:16;14.40;19.10
439;DHT22;206;48.782;9.252;2024-01-30T13:15:42;14.30;19.20
439;DHT22;206;48.782;9.252;2024-01-30T13:18:08;14.30;19.50
439;DHT22;206;48.782;9.252;2024-01-30T13:20:33;14.30;19.70
439;DHT22;206;48.782;9.252;2024-01-30T13:22:59;14.20;19.90
439;DHT22;206;48.782;9.252;2024-01-30T13:25:25;14.10;19.80
439;DHT22;206;48.782;9.252;2024-01-30T13:27:50;14.10;19.80
439;DHT22;206;48.782;9.252;2024-01-30T13:30:16;14.20;19.90
439;DHT22;206;48.782;9.252;2024-01-30T13:32:41;14.30;20.00
439;DHT22;206;48.782;9.252;2024-01-30T13:35:09;14.40;20.00
439;DHT22;206;48.782;9.252;2024-01-30T13:37:35;14.50;19.50
439;DHT22;206;48.782;9.252;2024-01-30T13:40:04;14.50;19.30
439;DHT22;206;48.782;9.252;2024-01-30T13:42:32;14.50;19.50
439;DHT22;206;48.782;9.252;2024-01-30T13:44:58;14.50;19.50
439;DHT22;206;48.782;9.252;2024-01-30T13:47:23;14.40;19.60
439;DHT22;206;48.782;9.252;2024-01-30T13:49:49;14.40;19.30
439;DHT22;206;48.782;9.252;2024-01-30T13:52:14;14.30;19.30
439;DHT22;206;48.782;9.252;2024-01-30T13:54:40;14.20;19.70
439;DHT22;206;48.782;9.252;2024-01-30T13:57:06;14.20;19.90
439;DHT22;206;48.782;9.252;2024-01-30T13:59:33;14.20;19.90
439;DHT22;206;48.782;9.252;2024-01-30T14:01:58;14.20;19.90
439;DHT22;206;48.782;9.252;2024-01-30T14:04:24;14.20;19.90
439;DHT22;206;48.782;9.252;2024-01-30T14:06:50;14.10;19.80
439;DHT22;206;48.782;9.252;2024-01-30T14:09:15;14.10;19.80
439;DHT22;206;48.782;9.252;2024-01-30T14:11:41;14.20;19.90
439;DHT22;206;48.782;9.252;2024-01-30T14:14:07;14.20;19.90
439;DHT22;206;48.782;9.252;2024-01-30T14:16:32;14.20;19.90
439;DHT22;206;48.782;9.252;2024-01-30T14:18:58;14.20;19.90
439;DHT22;206;48.782;9.252;2024-01-30T14:21:24;14.20;19.90
439;DHT22;206;48.782;9.252;2024-01-30T14:23:49;14.20;19.90
439;DHT22;206;48.782;9.252;2024-01-30T14:26:15;14.10;20.20
439;DHT22;206;48.782;9.252;2024-01-30T14:28:40;14.10;20.30
439;DHT22;206;48.782;9.252;2024-01-30T14:31:07;14.00;20.40
439;DHT22;206;48.782;9.252;2024-01-30T14:33:32;14.00;20.50
439;DHT22;206;48.782;9.252;2024-01-30T14:35:58;14.00;20.70
439;DHT22;206;48.782;9.252;2024-01-30T14:38:23;13.90;21.00
439;DHT22;206;48.782;9.252;2024-01-30T14:40:50;13.80;21.10
439;DHT22;206;48.782;9.252;2024-01-30T14:43:16;13.80;21.30
439;DHT22;206;48.782;9.252;2024-01-30T14:45:41;13.80;21.40
439;DHT22;206;48.782;9.252;2024-01-30T14:48:08;13.70;21.40
439;DHT22;206;48.782;9.252;2024-01-30T14:50:34;13.70;21.30
439;DHT22;206;48.782;9.252;2024-01-30T14:53:00;13.70;21.40
439;DHT22;206;48.782;9.252;2024-01-30T14:55:25;13.70;21.40
439;DHT22;206;48.782;9.252;2024-01-30T14:57:51;13.70;21.50
439;DHT22;206;48.782;9.252;2024-01-30T15:00:17;13.70;21.90
439;DHT22;206;48.782;9.252;2024-01-30T15:02:43;13.70;23.00
439;DHT22;206;48.782;9.252;2024-01-30T15:05:09;13.70;23.50
439;DHT22;206;48.782;9.252;2024-01-30T15:07:36;13.60;23.40
439;DHT22;206;48.782;9.252;2024-01-30T15:10:02;13.60;23.30
439;DHT22;206;48.782;9.252;2024-01-30T15:12:29;13.40;23.50
439;DHT22;206;48.782;9.252;2024-01-30T15:14:54;13.40;24.00
439;DHT22;206;48.782;9.252;2024-01-30T15:17:20;13.30;24.30
439;DHT22;206;48.782;9.252;2024-01-30T15:19:48;13.20;23.80
439;DHT22;206;48.782;9.252;2024-01-30T15:22:16;13.10;23.90
439;DHT22;206;48.782;9.252;2024-01-30T15:24:41;13.10;24.10
439;DHT22;206;48.782;9.252;2024-01-30T15:27:07;13.10;24.00
439;DHT22;206;48.782;9.252;2024-01-30T15:29:33;13.10;23.80
439;DHT22;206;48.782;9.252;2024-01-30T15:31:59;13.10;23.80
439;DHT22;206;48.782;9.252;2024-01-30T15:34:24;13.00;24.30
439;DHT22;206;48.782;9.252;2024-01-30T15:36:50;13.00;24.80
439;DHT22;206;48.782;9.252;2024-01-30T15:39:16;12.90;25.50
439;DHT22;206;48.782;9.252;2024-01-30T15:41:43;12.90;26.80
439;DHT22;206;48.782;9.252;2024-01-30T15:44:08;12.80;27.10
439;DHT22;206;48.782;9.252;2024-01-30T15:46:34;12.70;27.00
439;DHT22;206;48.782;9.252;2024-01-30T15:49:00;12.60;27.50
439;DHT22;206;48.782;9.252;2024-01-30T15:51:26;12.60;27.50
439;DHT22;206;48.782;9.252;2024-01-30T15:53:52;12.50;28.10
439;DHT22;206;48.782;9.252;2024-01-30T15:56:18;12.50;29.00
439;DHT22;206;48.782;9.252;2024-01-30T15:58:44;12.40;29.10
439;DHT22;206;48.782;9.252;2024-01-30T16:01:17;12.40;29.30
439;DHT22;206;48.782;9.252;2024-01-30T16:03:43;12.30;29.90
439;DHT22;206;48.782;9.252;2024-01-30T16:06:12;12.20;30.00
439;DHT22;206;48.782;9.252;2024-01-30T16:08:38;12.10;30.60
439;DHT22;206;48.782;9.252;2024-01-30T16:11:04;12.00;30.60
439;DHT22;206;48.782;9.252;2024-01-30T16:13:30;11.90;30.40
439;DHT22;206;48.782;9.252;2024-01-30T16:15:55;11.90;30.40
439;DHT22;206;48.782;9.252;2024-01-30T16:18:21;11.90;30.40
439;DHT22;206;48.782;9.252;2024-01-30T16:20:47;11.80;30.80
439;DHT22;206;48.782;9.252;2024-01-30T16:23:12;11.70;31.20
439;DHT22;206;48.782;9.252;2024-01-30T16:25:38;11.70;31.90
439;DHT22;206;48.782;9.252;2024-01-30T16:28:04;11.60;32.00
439;DHT22;206;48.782;9.252;2024-01-30T16:30:29;11.60;32.30
439;DHT22;206;48.782;9.252;2024-01-30T16:32:55;11.60;32.60
439;DHT22;206;48.782;9.252;2024-01-30T16:35:21;11.60;33.10
439;DHT22;206;48.782;9.252;2024-01-30T16:37:46;11.50;33.60